Kuttabul — VNBP — position and weather

sailwx.info

Track history (hours):
 
Tides and Currents Weather Stations Pressure Air Temp Water Temp Dewpoint Dewpoint Depression Visibility Wind Speed Wind Dir Waves Ship Positions

Kuttabul

Last reported at 2014-Jan-20 03:33 UTC. Time now 2014-Aug-01 16:04 UTC.
Position S 38°20' E 141°03'.
Warning: this ship's position is months out of date.

Length 34 m; draft 4.5 m.

Type: Tug. MMSI: 503027000.

Date/timePositionNaut miles runAvg speedWind from/ knotsBaromVisibWave heightAir tempDewpointWater temp
2014-Jan-20 03:33S 38°20' E 141°03'1111.0
2014-Jan-20 02:33S 38°24' E 141°16'1111.1
2014-Jan-20 01:33S 38°29' E 141°28'1110.6
2014-Jan-20 00:33S 38°32' E 141°42'1110.7
2014-Jan-19 23:33S 38°35' E 141°55'1110.7
2014-Jan-19 22:33S 38°38' E 142°08'1110.8
2014-Jan-19 21:33S 38°41' E 142°21'126 8.9
2014-Jan-19 07:22S 38°03' E 144°55'2 2.8
2014-Jan-19 06:33S 38°01' E 144°55'3 2.9
2014-Jan-19 05:33S 37°58' E 144°55'9 2.9
2014-Jan-19 02:25S 37°49' E 144°55'0 0.0
2014-Jan-19 01:31S 37°49' E 144°55'0 0.0
2014-Jan-19 00:31S 37°49' E 144°55'0 0.0
2014-Jan-17 15:15S 37°49' E 144°55'0 0.0
2014-Jan-17 14:33S 37°49' E 144°55'0 0.0
2014-Jan-17 13:33S 37°49' E 144°55'0 0.0
2014-Jan-17 12:33S 37°49' E 144°55'0 0.0
2014-Jan-17 11:33S 37°49' E 144°55'0 0.0
2014-Jan-17 10:33S 37°49' E 144°55'0 0.0
2014-Jan-17 08:27S 37°49' E 144°55'0 0.0
2014-Jan-17 07:27S 37°49' E 144°55'0 0.0
2014-Jan-17 06:33S 37°49' E 144°55'0 0.0
2014-Jan-17 05:27S 37°49' E 144°55'0 0.0
2014-Jan-17 04:33S 37°49' E 144°55'0 0.0
2014-Jan-17 03:33S 37°49' E 144°55'0 0.0
2014-Jan-17 02:33S 37°49' E 144°55'0 0.0
2014-Jan-17 01:33S 37°49' E 144°55'0 0.0
2014-Jan-17 00:33S 37°49' E 144°55'0 0.0
2014-Jan-16 23:33S 37°49' E 144°55'0 0.0
2014-Jan-16 22:30S 37°49' E 144°55'0 0.0
2014-Jan-16 21:30S 37°49' E 144°55'0 0.0
2014-Jan-16 20:30S 37°49' E 144°55'0 0.0
2014-Jan-16 19:30S 37°49' E 144°55'0 0.0
2014-Jan-16 18:30S 37°49' E 144°55'0 0.0
2014-Jan-16 17:30S 37°49' E 144°55'0 0.0
2014-Jan-16 16:30S 37°49' E 144°55'0 0.0
2014-Jan-16 15:30S 37°49' E 144°55'0 0.0
2014-Jan-16 14:30S 37°49' E 144°55'0 0.0
2014-Jan-16 13:30S 37°49' E 144°55'0 0.0
2014-Jan-16 12:30S 37°49' E 144°55'0 0.0
2014-Jan-16 11:30S 37°49' E 144°55'0 0.0
2014-Jan-16 10:30S 37°49' E 144°55'0 0.0
2014-Jan-16 09:30S 37°49' E 144°55'0 0.0
2014-Jan-16 08:30S 37°49' E 144°55'0 0.0
2014-Jan-16 07:30S 37°49' E 144°55'0 0.0
2014-Jan-16 06:30S 37°49' E 144°55'0 0.0
2014-Jan-16 05:30S 37°49' E 144°55'0 0.0
2014-Jan-16 04:30S 37°49' E 144°55'0 0.0
2014-Jan-16 02:30S 37°49' E 144°55'0 0.0
2014-Jan-16 01:30S 37°49' E 144°55'0 0.0
2014-Jan-16 00:30S 37°49' E 144°55'0 0.0
2014-Jan-15 23:30S 37°49' E 144°55'0 0.0
2014-Jan-15 22:30S 37°49' E 144°55'0 0.0
2014-Jan-15 21:30S 37°49' E 144°55'0 0.0
2014-Jan-15 20:30S 37°49' E 144°55'0 0.0
2014-Jan-15 16:30S 37°49' E 144°55'0 0.0
2014-Jan-15 13:30S 37°49' E 144°55'3 0.4
2014-Jan-15 05:33S 37°52' E 144°55'3 3.1
2014-Jan-15 04:33S 37°49' E 144°54'1 0.8
2014-Jan-15 03:31S 37°49' E 144°55'0 0.0
2014-Jan-15 02:31S 37°49' E 144°55'0 0.0
2014-Jan-15 01:31S 37°49' E 144°55'0 0.0
2014-Jan-15 00:31S 37°49' E 144°55'0 0.0
2014-Jan-14 23:31S 37°49' E 144°55'0 0.0
2014-Jan-14 22:31S 37°49' E 144°55'0 0.0
2014-Jan-14 21:31S 37°49' E 144°55'0 0.0
2014-Jan-14 20:31S 37°49' E 144°55'0 0.0
2014-Jan-14 19:31S 37°49' E 144°55'0 0.0
2014-Jan-14 18:31S 37°49' E 144°55'0 0.0
2014-Jan-14 17:31S 37°49' E 144°55'0 0.0
2014-Jan-14 16:31S 37°49' E 144°55'0 0.0
2014-Jan-14 15:25S 37°49' E 144°55'0 0.0
2014-Jan-14 14:31S 37°49' E 144°55'0 0.0
2014-Jan-14 13:31S 37°49' E 144°55'0 0.0
2014-Jan-14 12:31S 37°49' E 144°55'0 0.0
2014-Jan-14 11:31S 37°49' E 144°55'0 0.0
2014-Jan-14 10:31S 37°49' E 144°55'0 0.0
2014-Jan-14 09:31S 37°49' E 144°55'0 0.0
2014-Jan-14 08:31S 37°49' E 144°55'0 0.0
2014-Jan-14 07:31S 37°49' E 144°55'0 0.0
2014-Jan-14 06:31S 37°49' E 144°55'0 0.0
2014-Jan-14 05:31S 37°49' E 144°55'0 0.0
2014-Jan-14 04:32S 37°49' E 144°55'7 7.3
2014-Jan-14 03:33S 37°56' E 144°56'2 2.1
2014-Jan-14 02:33S 37°58' E 144°54'6 5.6
2014-Jan-14 01:33S 37°53' E 144°56'2 2.0
2014-Jan-14 00:34S 37°55' E 144°55'5 5.2
2014-Jan-13 23:32S 37°49' E 144°55'0 0.0
2014-Jan-13 22:24S 37°49' E 144°55'0 0.0
2014-Jan-13 21:30S 37°49' E 144°55'0 0.0
2014-Jan-13 20:30S 37°49' E 144°55'0 0.0
2014-Jan-13 19:30S 37°49' E 144°55'0 0.0
2014-Jan-13 18:30S 37°49' E 144°55'0 0.0
2014-Jan-13 17:18S 37°49' E 144°55'0 0.0
2014-Jan-13 16:30S 37°49' E 144°55'0 0.0
2014-Jan-13 15:30S 37°49' E 144°55'0 0.0
2014-Jan-13 14:30S 37°49' E 144°55'0 0.0
2014-Jan-13 13:30S 37°49' E 144°55'0 0.0
2014-Jan-13 12:24S 37°49' E 144°55'0 0.0
2014-Jan-13 11:30S 37°49' E 144°55'0 0.0
2014-Jan-13 10:30S 37°49' E 144°55'0 0.0
2014-Jan-13 09:24S 37°49' E 144°55'0 0.0
2014-Jan-13 08:30S 37°49' E 144°55'0 0.0
2014-Jan-13 07:24S 37°49' E 144°55'0 0.0
2014-Jan-13 06:30S 37°49' E 144°55'0 0.0
2014-Jan-13 05:30S 37°49' E 144°55'0 0.0
2014-Jan-13 04:30S 37°49' E 144°55'0 0.0
2014-Jan-13 03:30S 37°49' E 144°55'0 0.0
2014-Jan-13 02:30S 37°49' E 144°55'0 0.0
2014-Jan-13 01:30S 37°49' E 144°55'0 0.0
2014-Jan-13 00:32S 37°49' E 144°55'0 0.0
2014-Jan-12 23:32S 37°49' E 144°55'0 0.0
2014-Jan-12 22:29S 37°49' E 144°55'0 0.0
2014-Jan-12 21:29S 37°49' E 144°55'0 0.0
2014-Jan-12 20:29S 37°49' E 144°55'0 0.0
2014-Jan-12 19:29S 37°49' E 144°55'0 0.0
2014-Jan-12 18:29S 37°49' E 144°55'0 0.0
2014-Jan-12 17:29S 37°49' E 144°55'0 0.0
2014-Jan-12 16:29S 37°49' E 144°55'0 0.0
2014-Jan-12 15:29S 37°49' E 144°55'0 0.0
2014-Jan-12 14:29S 37°49' E 144°55'0 0.0
2014-Jan-12 13:29S 37°49' E 144°55'0 0.0
2014-Jan-12 12:23S 37°49' E 144°55'0 0.0
2014-Jan-12 11:29S 37°49' E 144°55'0 0.0
2014-Jan-12 10:29S 37°49' E 144°55'0 0.0
2014-Jan-12 09:32S 37°49' E 144°55'0 0.0
2014-Jan-12 08:29S 37°49' E 144°55'0 0.0
2014-Jan-12 07:29S 37°49' E 144°55'0 0.0
2014-Jan-12 06:23S 37°49' E 144°55'0 0.0
2014-Jan-12 05:29S 37°49' E 144°55'0 0.0
2014-Jan-12 04:29S 37°49' E 144°55'0 0.0
2014-Jan-12 03:29S 37°49' E 144°55'0 0.0
2014-Jan-12 02:29S 37°49' E 144°55'0 0.0
2014-Jan-12 01:29S 37°49' E 144°55'0 0.0
2014-Jan-12 00:29S 37°49' E 144°55'0 0.0
2014-Jan-11 23:29S 37°49' E 144°55'0 0.0
2014-Jan-11 22:29S 37°49' E 144°55'0 0.0
2014-Jan-11 21:29S 37°49' E 144°55'0 0.0
2014-Jan-11 20:29S 37°49' E 144°55'0 0.0
2014-Jan-11 19:29S 37°49' E 144°55'0 0.0
2014-Jan-11 18:29S 37°49' E 144°55'0 0.0
2014-Jan-11 17:29S 37°49' E 144°55'0 0.0
2014-Jan-11 16:29S 37°49' E 144°55'0 0.0
2014-Jan-11 15:29S 37°49' E 144°55'0 0.0
2014-Jan-11 14:29S 37°49' E 144°55'0 0.0
2014-Jan-11 13:29S 37°49' E 144°55'0 0.0
2014-Jan-11 12:32S 37°49' E 144°55'0 0.0
2014-Jan-11 11:29S 37°49' E 144°55'0 0.0
2014-Jan-11 10:29S 37°49' E 144°55'0 0.0
2014-Jan-11 09:29S 37°49' E 144°55'0 0.0
2014-Jan-11 08:29S 37°49' E 144°55'0 0.0
2014-Jan-11 07:29S 37°49' E 144°55'0 0.0
2014-Jan-11 06:29S 37°49' E 144°55'0 0.0
2014-Jan-11 05:29S 37°49' E 144°55'0 0.0
2014-Jan-11 04:29S 37°49' E 144°55'0 0.0
2014-Jan-11 03:23S 37°49' E 144°55'0 0.0
2014-Jan-11 02:29S 37°49' E 144°55'0 0.0
2014-Jan-11 01:29S 37°49' E 144°55'0 0.0
2014-Jan-11 00:29S 37°49' E 144°55'0 0.0
2014-Jan-10 23:29S 37°49' E 144°55'0 0.0
2014-Jan-10 22:29S 37°49' E 144°55'0 0.0
2014-Jan-10 21:29S 37°49' E 144°55'0 0.0
2014-Jan-10 20:29S 37°49' E 144°55'0 0.0
2014-Jan-10 19:29S 37°49' E 144°55'0 0.0
2014-Jan-10 18:29S 37°49' E 144°55'0 0.0
2014-Jan-10 17:29S 37°49' E 144°55'0 0.0
2014-Jan-10 16:17S 37°49' E 144°55'0 0.0
2014-Jan-10 15:29S 37°49' E 144°55'0 0.0
2014-Jan-10 14:29S 37°49' E 144°55'0 0.0
2014-Jan-10 13:29S 37°49' E 144°55'0 0.0
2014-Jan-10 12:29S 37°49' E 144°55'0 0.0
2014-Jan-10 11:29S 37°49' E 144°55'0 0.0
2014-Jan-10 10:29S 37°49' E 144°55'0 0.0
2014-Jan-10 09:29S 37°49' E 144°55'0 0.0
2014-Jan-10 08:29S 37°49' E 144°55'0 0.0
2014-Jan-10 07:29S 37°49' E 144°55'0 0.0
2014-Jan-10 06:23S 37°49' E 144°55'0 0.0
2014-Jan-10 05:32S 37°49' E 144°55'0 0.0
2014-Jan-10 04:29S 37°49' E 144°55'  
Track history (hours):
 
Tides and Currents Weather Stations Pressure Air Temp Water Temp Dewpoint Dewpoint Depression Visibility Wind Speed Wind Dir Waves Ship Positions

Kuttabul

Last reported at 2014-Jan-20 03:33 UTC. Time now 2014-Aug-01 16:04 UTC.
Position S 38°20' E 141°03'.
Warning: this ship's position is months out of date.

Length 34 m; draft 4.5 m.

Type: Tug. MMSI: 503027000.

Date/timePositionNaut miles runAvg speedWind from/ knotsBaromVisibWave heightAir tempDewpointWater temp
2014-Jan-20 03:33S 38°20' E 141°03'1111.0
2014-Jan-20 02:33S 38°24' E 141°16'1111.1
2014-Jan-20 01:33S 38°29' E 141°28'1110.6
2014-Jan-20 00:33S 38°32' E 141°42'1110.7
2014-Jan-19 23:33S 38°35' E 141°55'1110.7
2014-Jan-19 22:33S 38°38' E 142°08'1110.8
2014-Jan-19 21:33S 38°41' E 142°21'126 8.9
2014-Jan-19 07:22S 38°03' E 144°55'2 2.8
2014-Jan-19 06:33S 38°01' E 144°55'3 2.9
2014-Jan-19 05:33S 37°58' E 144°55'9 2.9
2014-Jan-19 02:25S 37°49' E 144°55'0 0.0
2014-Jan-19 01:31S 37°49' E 144°55'0 0.0
2014-Jan-19 00:31S 37°49' E 144°55'0 0.0
2014-Jan-17 15:15S 37°49' E 144°55'0 0.0
2014-Jan-17 14:33S 37°49' E 144°55'0 0.0
2014-Jan-17 13:33S 37°49' E 144°55'0 0.0
2014-Jan-17 12:33S 37°49' E 144°55'0 0.0
2014-Jan-17 11:33S 37°49' E 144°55'0 0.0
2014-Jan-17 10:33S 37°49' E 144°55'0 0.0
2014-Jan-17 08:27S 37°49' E 144°55'0 0.0
2014-Jan-17 07:27S 37°49' E 144°55'0 0.0
2014-Jan-17 06:33S 37°49' E 144°55'0 0.0
2014-Jan-17 05:27S 37°49' E 144°55'0 0.0
2014-Jan-17 04:33S 37°49' E 144°55'0 0.0
2014-Jan-17 03:33S 37°49' E 144°55'0 0.0
2014-Jan-17 02:33S 37°49' E 144°55'0 0.0
2014-Jan-17 01:33S 37°49' E 144°55'0 0.0
2014-Jan-17 00:33S 37°49' E 144°55'0 0.0
2014-Jan-16 23:33S 37°49' E 144°55'0 0.0
2014-Jan-16 22:30S 37°49' E 144°55'0 0.0
2014-Jan-16 21:30S 37°49' E 144°55'0 0.0
2014-Jan-16 20:30S 37°49' E 144°55'0 0.0
2014-Jan-16 19:30S 37°49' E 144°55'0 0.0
2014-Jan-16 18:30S 37°49' E 144°55'0 0.0
2014-Jan-16 17:30S 37°49' E 144°55'0 0.0
2014-Jan-16 16:30S 37°49' E 144°55'0 0.0
2014-Jan-16 15:30S 37°49' E 144°55'0 0.0
2014-Jan-16 14:30S 37°49' E 144°55'0 0.0
2014-Jan-16 13:30S 37°49' E 144°55'0 0.0
2014-Jan-16 12:30S 37°49' E 144°55'0 0.0
2014-Jan-16 11:30S 37°49' E 144°55'0 0.0
2014-Jan-16 10:30S 37°49' E 144°55'0 0.0
2014-Jan-16 09:30S 37°49' E 144°55'0 0.0
2014-Jan-16 08:30S 37°49' E 144°55'0 0.0
2014-Jan-16 07:30S 37°49' E 144°55'0 0.0
2014-Jan-16 06:30S 37°49' E 144°55'0 0.0
2014-Jan-16 05:30S 37°49' E 144°55'0 0.0
2014-Jan-16 04:30S 37°49' E 144°55'0 0.0
2014-Jan-16 02:30S 37°49' E 144°55'0 0.0
2014-Jan-16 01:30S 37°49' E 144°55'0 0.0
2014-Jan-16 00:30S 37°49' E 144°55'0 0.0
2014-Jan-15 23:30S 37°49' E 144°55'0 0.0
2014-Jan-15 22:30S 37°49' E 144°55'0 0.0
2014-Jan-15 21:30S 37°49' E 144°55'0 0.0
2014-Jan-15 20:30S 37°49' E 144°55'0 0.0
2014-Jan-15 16:30S 37°49' E 144°55'0 0.0
2014-Jan-15 13:30S 37°49' E 144°55'3 0.4
2014-Jan-15 05:33S 37°52' E 144°55'3 3.1
2014-Jan-15 04:33S 37°49' E 144°54'1 0.8
2014-Jan-15 03:31S 37°49' E 144°55'0 0.0
2014-Jan-15 02:31S 37°49' E 144°55'0 0.0
2014-Jan-15 01:31S 37°49' E 144°55'0 0.0
2014-Jan-15 00:31S 37°49' E 144°55'0 0.0
2014-Jan-14 23:31S 37°49' E 144°55'0 0.0
2014-Jan-14 22:31S 37°49' E 144°55'0 0.0
2014-Jan-14 21:31S 37°49' E 144°55'0 0.0
2014-Jan-14 20:31S 37°49' E 144°55'0 0.0
2014-Jan-14 19:31S 37°49' E 144°55'0 0.0
2014-Jan-14 18:31S 37°49' E 144°55'0 0.0
2014-Jan-14 17:31S 37°49' E 144°55'0 0.0
2014-Jan-14 16:31S 37°49' E 144°55'0 0.0
2014-Jan-14 15:25S 37°49' E 144°55'0 0.0
2014-Jan-14 14:31S 37°49' E 144°55'0 0.0
2014-Jan-14 13:31S 37°49' E 144°55'0 0.0
2014-Jan-14 12:31S 37°49' E 144°55'0 0.0
2014-Jan-14 11:31S 37°49' E 144°55'0 0.0
2014-Jan-14 10:31S 37°49' E 144°55'0 0.0
2014-Jan-14 09:31S 37°49' E 144°55'0 0.0
2014-Jan-14 08:31S 37°49' E 144°55'0 0.0
2014-Jan-14 07:31S 37°49' E 144°55'0 0.0
2014-Jan-14 06:31S 37°49' E 144°55'0 0.0
2014-Jan-14 05:31S 37°49' E 144°55'0 0.0
2014-Jan-14 04:32S 37°49' E 144°55'7 7.3
2014-Jan-14 03:33S 37°56' E 144°56'2 2.1
2014-Jan-14 02:33S 37°58' E 144°54'6 5.6
2014-Jan-14 01:33S 37°53' E 144°56'2 2.0
2014-Jan-14 00:34S 37°55' E 144°55'5 5.2
2014-Jan-13 23:32S 37°49' E 144°55'0 0.0
2014-Jan-13 22:24S 37°49' E 144°55'0 0.0
2014-Jan-13 21:30S 37°49' E 144°55'0 0.0
2014-Jan-13 20:30S 37°49' E 144°55'0 0.0
2014-Jan-13 19:30S 37°49' E 144°55'0 0.0
2014-Jan-13 18:30S 37°49' E 144°55'0 0.0
2014-Jan-13 17:18S 37°49' E 144°55'0 0.0
2014-Jan-13 16:30S 37°49' E 144°55'0 0.0
2014-Jan-13 15:30S 37°49' E 144°55'0 0.0
2014-Jan-13 14:30S 37°49' E 144°55'0 0.0
2014-Jan-13 13:30S 37°49' E 144°55'0 0.0
2014-Jan-13 12:24S 37°49' E 144°55'0 0.0
2014-Jan-13 11:30S 37°49' E 144°55'0 0.0
2014-Jan-13 10:30S 37°49' E 144°55'0 0.0
2014-Jan-13 09:24S 37°49' E 144°55'0 0.0
2014-Jan-13 08:30S 37°49' E 144°55'0 0.0
2014-Jan-13 07:24S 37°49' E 144°55'0 0.0
2014-Jan-13 06:30S 37°49' E 144°55'0 0.0
2014-Jan-13 05:30S 37°49' E 144°55'0 0.0
2014-Jan-13 04:30S 37°49' E 144°55'0 0.0
2014-Jan-13 03:30S 37°49' E 144°55'0 0.0
2014-Jan-13 02:30S 37°49' E 144°55'0 0.0
2014-Jan-13 01:30S 37°49' E 144°55'0 0.0
2014-Jan-13 00:32S 37°49' E 144°55'0 0.0
2014-Jan-12 23:32S 37°49' E 144°55'0 0.0
2014-Jan-12 22:29S 37°49' E 144°55'0 0.0
2014-Jan-12 21:29S 37°49' E 144°55'0 0.0
2014-Jan-12 20:29S 37°49' E 144°55'0 0.0
2014-Jan-12 19:29S 37°49' E 144°55'0 0.0
2014-Jan-12 18:29S 37°49' E 144°55'0 0.0
2014-Jan-12 17:29S 37°49' E 144°55'0 0.0
2014-Jan-12 16:29S 37°49' E 144°55'0 0.0
2014-Jan-12 15:29S 37°49' E 144°55'0 0.0
2014-Jan-12 14:29S 37°49' E 144°55'0 0.0
2014-Jan-12 13:29S 37°49' E 144°55'0 0.0
2014-Jan-12 12:23S 37°49' E 144°55'0 0.0
2014-Jan-12 11:29S 37°49' E 144°55'0 0.0
2014-Jan-12 10:29S 37°49' E 144°55'0 0.0
2014-Jan-12 09:32S 37°49' E 144°55'0 0.0
2014-Jan-12 08:29S 37°49' E 144°55'0 0.0
2014-Jan-12 07:29S 37°49' E 144°55'0 0.0
2014-Jan-12 06:23S 37°49' E 144°55'0 0.0
2014-Jan-12 05:29S 37°49' E 144°55'0 0.0
2014-Jan-12 04:29S 37°49' E 144°55'0 0.0
2014-Jan-12 03:29S 37°49' E 144°55'0 0.0
2014-Jan-12 02:29S 37°49' E 144°55'0 0.0
2014-Jan-12 01:29S 37°49' E 144°55'0 0.0
2014-Jan-12 00:29S 37°49' E 144°55'0 0.0
2014-Jan-11 23:29S 37°49' E 144°55'0 0.0
2014-Jan-11 22:29S 37°49' E 144°55'0 0.0
2014-Jan-11 21:29S 37°49' E 144°55'0 0.0
2014-Jan-11 20:29S 37°49' E 144°55'0 0.0
2014-Jan-11 19:29S 37°49' E 144°55'0 0.0
2014-Jan-11 18:29S 37°49' E 144°55'0 0.0
2014-Jan-11 17:29S 37°49' E 144°55'0 0.0
2014-Jan-11 16:29S 37°49' E 144°55'0 0.0
2014-Jan-11 15:29S 37°49' E 144°55'0 0.0
2014-Jan-11 14:29S 37°49' E 144°55'0 0.0
2014-Jan-11 13:29S 37°49' E 144°55'0 0.0
2014-Jan-11 12:32S 37°49' E 144°55'0 0.0
2014-Jan-11 11:29S 37°49' E 144°55'0 0.0
2014-Jan-11 10:29S 37°49' E 144°55'0 0.0
2014-Jan-11 09:29S 37°49' E 144°55'0 0.0
2014-Jan-11 08:29S 37°49' E 144°55'0 0.0
2014-Jan-11 07:29S 37°49' E 144°55'0 0.0
2014-Jan-11 06:29S 37°49' E 144°55'0 0.0
2014-Jan-11 05:29S 37°49' E 144°55'0 0.0
2014-Jan-11 04:29S 37°49' E 144°55'0 0.0
2014-Jan-11 03:23S 37°49' E 144°55'0 0.0
2014-Jan-11 02:29S 37°49' E 144°55'0 0.0
2014-Jan-11 01:29S 37°49' E 144°55'0 0.0
2014-Jan-11 00:29S 37°49' E 144°55'0 0.0
2014-Jan-10 23:29S 37°49' E 144°55'0 0.0
2014-Jan-10 22:29S 37°49' E 144°55'0 0.0
2014-Jan-10 21:29S 37°49' E 144°55'0 0.0
2014-Jan-10 20:29S 37°49' E 144°55'0 0.0
2014-Jan-10 19:29S 37°49' E 144°55'0 0.0
2014-Jan-10 18:29S 37°49' E 144°55'0 0.0
2014-Jan-10 17:29S 37°49' E 144°55'0 0.0
2014-Jan-10 16:17S 37°49' E 144°55'0 0.0
2014-Jan-10 15:29S 37°49' E 144°55'0 0.0
2014-Jan-10 14:29S 37°49' E 144°55'0 0.0
2014-Jan-10 13:29S 37°49' E 144°55'0 0.0
2014-Jan-10 12:29S 37°49' E 144°55'0 0.0
2014-Jan-10 11:29S 37°49' E 144°55'0 0.0
2014-Jan-10 10:29S 37°49' E 144°55'0 0.0
2014-Jan-10 09:29S 37°49' E 144°55'0 0.0
2014-Jan-10 08:29S 37°49' E 144°55'0 0.0
2014-Jan-10 07:29S 37°49' E 144°55'0 0.0
2014-Jan-10 06:23S 37°49' E 144°55'0 0.0
2014-Jan-10 05:32S 37°49' E 144°55'0 0.0
2014-Jan-10 04:29S 37°49' E 144°55'  

Dump ship's entire track history